Time;durP1;ratioP1;P1;durP2;ratioP2;P2;SDS_P1;SDS_P2;PMS_P1;PMS_P2;Temp;Humidity;BMP_temperature;BMP_pressure;BME280_temperature;BME280_humidity;BME280_pressure;Samples;Min_cycle;Max_cycle;Signal;HPM_P1;HPM_P2
2023/02/10 00:01:18;;;;;;;16.70;10.70;;;4.50;88.50;;;;;;4996252;28;20034;-63
2023/02/10 00:03:45;;;;;;;21.45;11.77;;;4.50;88.50;;;;;;5022657;28;20026;-63
2023/02/10 00:06:12;;;;;;;18.38;12.00;;;4.50;88.60;;;;;;5023335;28;20033;-63
2023/02/10 00:08:39;;;;;;;17.63;10.90;;;4.60;89.20;;;;;;5014845;28;20033;-63
2023/02/10 00:11:07;;;;;;;20.75;10.52;;;4.60;88.70;;;;;;5015090;28;20037;-64
2023/02/10 00:13:33;;;;;;;17.23;11.48;;;4.60;88.90;;;;;;5031534;28;20041;-63
2023/02/10 00:16:04;;;;;;;17.45;11.02;;;4.60;88.90;;;;;;5027254;28;20025;-64
2023/02/10 00:18:31;;;;;;;18.70;11.73;;;4.60;88.90;;;;;;5031994;28;20057;-64
2023/02/10 00:21:05;;;;;;;19.58;11.65;;;4.70;88.90;;;;;;5010694;28;20022;-63
2023/02/10 00:23:30;;;;;;;18.23;11.30;;;4.70;88.90;;;;;;5016077;28;20026;-63
2023/02/10 00:25:56;;;;;;;16.88;10.48;;;4.70;89.00;;;;;;5017159;28;20052;-63
2023/02/10 00:28:21;;;;;;;18.55;11.18;;;4.70;89.00;;;;;;5028409;28;20090;-63
2023/02/10 00:30:47;;;;;;;18.98;11.15;;;4.70;89.00;;;;;;5028754;28;20044;-63
2023/02/10 00:33:13;;;;;;;19.75;11.55;;;4.70;89.00;;;;;;5018184;28;20081;-63
2023/02/10 00:35:38;;;;;;;19.23;11.75;;;4.80;89.10;;;;;;5015194;28;20492;-63
2023/02/10 00:38:04;;;;;;;17.38;11.10;;;4.70;89.10;;;;;;5034315;28;20032;-63
2023/02/10 00:40:29;;;;;;;21.40;12.27;;;4.80;89.20;;;;;;5020047;28;20089;-63
2023/02/10 00:42:55;;;;;;;20.33;11.43;;;4.70;89.10;;;;;;5020102;28;20473;-63
2023/02/10 00:45:21;;;;;;;17.75;11.00;;;4.70;89.10;;;;;;5021510;28;20036;-63
2023/02/10 00:47:49;;;;;;;20.98;11.88;;;4.70;89.20;;;;;;5024000;28;20029;-63
2023/02/10 00:50:14;;;;;;;19.05;12.02;;;4.70;89.30;;;;;;5026134;28;20030;-63
2023/02/10 00:52:40;;;;;;;19.58;12.18;;;4.70;89.40;;;;;;5039215;28;20024;-63
2023/02/10 00:55:05;;;;;;;19.00;11.75;;;4.70;89.60;;;;;;5047539;28;20449;-63
2023/02/10 00:57:31;;;;;;;18.40;11.32;;;4.70;89.70;;;;;;5027374;28;20026;-63
2023/02/10 00:59:57;;;;;;;20.30;11.43;;;4.70;89.80;;;;;;5019787;28;20057;-63
2023/02/10 01:02:22;;;;;;;17.38;11.60;;;4.70;89.80;;;;;;5017298;28;20032;-63
2023/02/10 01:04:48;;;;;;;18.13;11.43;;;4.70;89.90;;;;;;5023865;28;20026;-63
2023/02/10 01:07:13;;;;;;;22.75;12.07;;;4.80;90.00;;;;;;5023737;28;20060;-63
2023/02/10 01:09:39;;;;;;;22.27;12.38;;;4.80;90.00;;;;;;5017799;28;20066;-63
2023/02/10 01:12:06;;;;;;;20.15;11.63;;;4.80;90.00;;;;;;5029214;28;20495;-63
2023/02/10 01:14:32;;;;;;;19.95;11.35;;;4.80;90.00;;;;;;5021630;28;20079;-63
2023/02/10 01:16:58;;;;;;;19.38;11.93;;;4.80;90.10;;;;;;5021301;28;20060;-63
2023/02/10 01:19:23;;;;;;;18.67;12.43;;;4.80;90.10;;;;;;5018669;28;20469;-64
2023/02/10 01:21:49;;;;;;;20.27;12.23;;;4.80;90.10;;;;;;5026988;28;20044;-63
2023/02/10 01:24:15;;;;;;;20.20;11.75;;;4.80;90.10;;;;;;5009885;28;20029;-64
2023/02/10 01:26:41;;;;;;;23.30;13.00;;;4.70;90.10;;;;;;5032219;28;20045;-64
2023/02/10 01:29:07;;;;;;;19.67;11.60;;;4.70;90.20;;;;;;5013885;28;20042;-63
2023/02/10 01:31:32;;;;;;;18.60;12.10;;;4.60;90.10;;;;;;5022560;28;20518;-64
2023/02/10 01:33:58;;;;;;;18.45;12.20;;;4.60;90.10;;;;;;5027812;28;20029;-64
2023/02/10 01:36:25;;;;;;;17.23;11.48;;;4.60;90.10;;;;;;5021627;28;20028;-63
2023/02/10 01:38:51;;;;;;;21.08;12.95;;;4.60;90.20;;;;;;5024980;28;20036;-63
2023/02/10 01:41:20;;;;;;;19.58;12.82;;;4.60;90.20;;;;;;5025854;28;20096;-63
2023/02/10 01:43:59;;;;;;;19.23;12.57;;;4.50;90.20;;;;;;5030446;28;20037;-63
2023/02/10 01:46:26;;;;;;;18.42;12.07;;;4.50;90.30;;;;;;5019915;28;20091;-63
2023/02/10 01:48:53;;;;;;;19.77;11.90;;;4.40;90.30;;;;;;5034752;28;20108;-62
2023/02/10 01:51:24;;;;;;;21.52;12.98;;;4.40;90.40;;;;;;5029165;28;20033;-63
2023/02/10 01:53:50;;;;;;;19.85;12.02;;;4.40;90.40;;;;;;5043888;28;20503;-63
2023/02/10 01:56:17;;;;;;;20.05;12.70;;;4.40;90.60;;;;;;5032493;28;20043;-63
2023/02/10 01:58:44;;;;;;;21.38;12.32;;;4.40;90.50;;;;;;5034026;28;20488;-63
2023/02/10 02:01:10;;;;;;;18.05;12.32;;;4.30;90.50;;;;;;5017354;28;20469;-63
2023/02/10 02:03:36;;;;;;;20.85;11.60;;;4.30;90.60;;;;;;5032136;28;20452;-63
2023/02/10 02:06:02;;;;;;;17.92;11.68;;;4.30;90.60;;;;;;5008947;28;20099;-63
2023/02/10 02:08:30;;;;;;;17.63;11.65;;;4.30;90.70;;;;;;5034337;28;20404;-63
2023/02/10 02:11:14;;;;;;;20.13;12.15;;;4.30;90.80;;;;;;5028491;28;20029;-63
2023/02/10 02:13:58;;;;;;;21.40;11.73;;;4.20;90.80;;;;;;5014840;28;20029;-63
2023/02/10 02:16:33;;;;;;;22.70;12.50;;;4.20;90.90;;;;;;5020718;28;20034;-63
2023/02/10 02:19:36;;;;;;;22.73;13.60;;;4.20;90.90;;;;;;5027130;28;20034;-63
2023/02/10 02:22:26;;;;;;;20.80;11.50;;;4.20;90.90;;;;;;5023173;28;20025;-63
2023/02/10 02:25:05;;;;;;;23.80;12.93;;;4.10;91.00;;;;;;5031501;28;20043;-63
2023/02/10 02:27:46;;;;;;;20.98;12.52;;;4.10;91.00;;;;;;5026155;28;20072;-63
2023/02/10 02:30:45;;;;;;;19.80;12.80;;;4.10;91.00;;;;;;5027028;28;20117;-63
2023/02/10 02:33:18;;;;;;;20.58;12.57;;;4.10;91.10;;;;;;5022544;28;20445;-63
2023/02/10 02:35:52;;;;;;;21.90;13.27;;;4.00;91.10;;;;;;5022015;28;20044;-63
2023/02/10 02:38:17;;;;;;;21.17;12.63;;;4.00;91.20;;;;;;5032112;28;20037;-63
2023/02/10 02:40:43;;;;;;;21.48;12.90;;;3.90;91.30;;;;;;5032147;28;20044;-63
2023/02/10 02:43:09;;;;;;;19.70;12.57;;;4.00;91.30;;;;;;5013911;28;20029;-63
2023/02/10 02:45:50;;;;;;;21.45;12.00;;;3.90;91.30;;;;;;5016671;28;20503;-63
2023/02/10 02:48:29;;;;;;;23.45;12.85;;;3.90;91.40;;;;;;5049203;28;20087;-64
2023/02/10 02:51:10;;;;;;;24.70;12.40;;;3.90;91.40;;;;;;5026944;28;20022;-63
2023/02/10 02:54:05;;;;;;;20.27;12.68;;;3.90;91.50;;;;;;5025067;28;20026;-64
2023/02/10 02:57:09;;;;;;;18.17;12.27;;;3.90;91.50;;;;;;5012514;28;20034;-63
2023/02/10 02:59:50;;;;;;;20.02;12.65;;;3.90;91.60;;;;;;5013185;28;20034;-63
2023/02/10 03:02:19;;;;;;;20.35;12.57;;;4.00;91.60;;;;;;5020660;28;20034;-63
2023/02/10 03:04:45;;;;;;;21.77;13.93;;;3.90;91.60;;;;;;4995733;28;20113;-64
2023/02/10 03:07:11;;;;;;;20.15;12.35;;;4.00;91.70;;;;;;5014112;28;20405;-64
2023/02/10 03:09:37;;;;;;;22.40;13.27;;;3.90;91.70;;;;;;5034223;28;20025;-64
2023/02/10 03:12:06;;;;;;;17.42;12.00;;;3.90;91.70;;;;;;5022555;28;20033;-63
2023/02/10 03:14:31;;;;;;;19.73;13.27;;;3.90;91.80;;;;;;5031360;28;20604;-63
2023/02/10 03:16:57;;;;;;;22.83;13.02;;;3.90;91.80;;;;;;5033058;28;20033;-64
2023/02/10 03:19:26;;;;;;;21.48;13.07;;;3.90;91.80;;;;;;5044872;28;20025;-64
2023/02/10 03:21:51;;;;;;;23.02;12.88;;;3.90;91.90;;;;;;5029188;28;20480;-63
2023/02/10 03:24:17;;;;;;;26.42;14.85;;;3.90;91.90;;;;;;5022069;28;20116;-65
2023/02/10 03:26:43;;;;;;;21.02;13.30;;;4.00;91.90;;;;;;5028750;28;20485;-64
2023/02/10 03:29:11;;;;;;;21.90;13.27;;;3.90;91.90;;;;;;5046454;28;20105;-63
2023/02/10 03:31:36;;;;;;;26.20;14.75;;;3.90;92.00;;;;;;5018540;28;20384;-63
2023/02/10 03:34:02;;;;;;;24.02;14.90;;;4.00;92.00;;;;;;5030059;28;20106;-64
2023/02/10 03:36:27;;;;;;;26.33;14.70;;;4.00;92.10;;;;;;5027520;28;20021;-64
2023/02/10 03:38:53;;;;;;;23.77;14.05;;;3.90;92.10;;;;;;5029866;28;20415;-63
2023/02/10 03:41:19;;;;;;;27.42;15.25;;;3.90;92.20;;;;;;5000895;28;20053;-63
2023/02/10 03:43:44;;;;;;;23.70;15.40;;;3.90;92.20;;;;;;5023617;28;20279;-64
2023/02/10 03:46:10;;;;;;;23.75;15.35;;;4.00;92.30;;;;;;5019619;28;20057;-64
2023/02/10 03:48:36;;;;;;;27.45;15.70;;;4.00;92.30;;;;;;5012360;28;20026;-64
2023/02/10 03:51:04;;;;;;;24.70;16.02;;;4.00;92.30;;;;;;5011969;28;20038;-64
2023/02/10 03:53:31;;;;;;;25.98;15.93;;;4.00;92.40;;;;;;5021166;28;20036;-63
2023/02/10 03:55:57;;;;;;;27.98;16.25;;;4.00;92.40;;;;;;5018146;28;20491;-64
2023/02/10 03:58:23;;;;;;;26.35;16.30;;;4.00;92.50;;;;;;5026644;28;20289;-63
2023/02/10 04:00:49;;;;;;;24.00;15.95;;;4.00;92.80;;;;;;5021233;28;20026;-63
2023/02/10 04:03:15;;;;;;;29.48;16.38;;;4.00;92.60;;;;;;5027309;28;20030;-63
2023/02/10 04:05:41;;;;;;;29.75;16.88;;;4.00;92.70;;;;;;5015005;28;20026;-64
2023/02/10 04:08:08;;;;;;;26.15;16.13;;;4.10;92.70;;;;;;5017299;28;20326;-63
2023/02/10 04:10:33;;;;;;;26.65;17.55;;;4.10;92.80;;;;;;5027763;28;20084;-63
2023/02/10 04:12:59;;;;;;;27.05;17.08;;;4.10;92.80;;;;;;5032487;28;20025;-63
2023/02/10 04:15:25;;;;;;;27.35;16.42;;;4.10;92.80;;;;;;5039438;28;20028;-63
2023/02/10 04:17:50;;;;;;;27.17;16.38;;;4.20;92.90;;;;;;5043790;28;20480;-64
2023/02/10 04:20:16;;;;;;;30.75;17.73;;;4.20;92.90;;;;;;5039242;28;20116;-64
2023/02/10 04:22:42;;;;;;;29.95;18.00;;;4.20;93.00;;;;;;5027967;28;20453;-64
2023/02/10 04:25:08;;;;;;;35.30;18.10;;;4.20;93.00;;;;;;5012833;28;20036;-63
2023/02/10 04:27:33;;;;;;;30.13;18.20;;;4.20;93.30;;;;;;5017914;28;20052;-63
2023/02/10 04:29:59;;;;;;;29.08;17.85;;;4.30;93.10;;;;;;5028703;28;20033;-63
2023/02/10 04:32:25;;;;;;;32.30;18.15;;;4.30;93.10;;;;;;5021095;28;20025;-63
2023/02/10 04:34:51;;;;;;;32.03;18.88;;;4.30;93.20;;;;;;5034312;28;20032;-63
2023/02/10 04:37:17;;;;;;;33.70;18.05;;;4.30;93.20;;;;;;5019857;28;20041;-63
2023/02/10 04:39:42;;;;;;;32.15;18.35;;;4.40;93.30;;;;;;5029086;28;20025;-64
2023/02/10 04:42:08;;;;;;;29.80;18.63;;;4.40;93.30;;;;;;5032218;28;20484;-64
2023/02/10 04:44:34;;;;;;;29.02;18.13;;;4.30;93.40;;;;;;5024332;28;20492;-64
2023/02/10 04:47:00;;;;;;;30.95;18.48;;;4.40;93.40;;;;;;5023598;28;20128;-64
2023/02/10 04:49:26;;;;;;;35.58;19.27;;;4.40;93.50;;;;;;5018298;28;20461;-64
2023/02/10 04:51:52;;;;;;;37.35;19.02;;;4.40;93.50;;;;;;5022229;28;20036;-64
2023/02/10 04:54:18;;;;;;;30.50;17.27;;;4.50;93.60;;;;;;5023748;28;20389;-64
2023/02/10 04:56:43;;;;;;;30.58;17.48;;;4.50;93.60;;;;;;5041280;28;20076;-64
2023/02/10 04:59:09;;;;;;;34.53;20.95;;;4.50;93.60;;;;;;5030352;28;20394;-64
2023/02/10 05:01:35;;;;;;;30.80;18.90;;;4.50;93.70;;;;;;5010301;28;20033;-64
2023/02/10 05:04:01;;;;;;;36.85;20.42;;;4.50;93.70;;;;;;5027342;28;20026;-64
2023/02/10 05:06:26;;;;;;;36.78;21.58;;;4.60;93.80;;;;;;5029883;28;20363;-65
2023/02/10 05:08:52;;;;;;;34.65;20.02;;;4.60;93.80;;;;;;5014589;28;20028;-65
2023/02/10 05:11:18;;;;;;;36.95;18.88;;;4.60;93.80;;;;;;5023651;28;20029;-65
2023/02/10 05:13:44;;;;;;;37.88;20.05;;;4.70;93.90;;;;;;5021955;28;20029;-65
2023/02/10 05:16:11;;;;;;;34.63;20.58;;;4.70;93.90;;;;;;5025478;28;20111;-65
2023/02/10 05:18:39;;;;;;;36.50;19.83;;;4.70;93.90;;;;;;5019151;28;20041;-65
2023/02/10 05:21:07;;;;;;;33.22;19.52;;;4.70;94.00;;;;;;5019025;28;20168;-64
2023/02/10 05:23:33;;;;;;;34.95;20.00;;;4.70;94.00;;;;;;5024045;28;20034;-64
2023/02/10 05:25:59;;;;;;;32.30;19.25;;;4.70;94.00;;;;;;5014750;28;20025;-64
2023/02/10 05:28:24;;;;;;;36.95;20.73;;;4.80;94.10;;;;;;5020193;28;20061;-65
2023/02/10 05:30:50;;;;;;;31.15;19.42;;;4.80;94.10;;;;;;5020050;28;20408;-64
2023/02/10 05:33:16;;;;;;;31.60;19.58;;;4.80;94.30;;;;;;5013924;28;20046;-65
2023/02/10 05:35:41;;;;;;;34.15;19.92;;;4.80;94.10;;;;;;5015950;28;20057;-64
2023/02/10 05:38:07;;;;;;;34.30;19.13;;;4.80;94.40;;;;;;5028381;28;20538;-64
2023/02/10 05:40:33;;;;;;;32.90;20.38;;;4.80;94.20;;;;;;5024501;28;20352;-65
2023/02/10 05:42:59;;;;;;;34.92;20.02;;;4.80;94.20;;;;;;5014009;28;20096;-65
2023/02/10 05:45:24;;;;;;;35.03;19.55;;;4.90;94.20;;;;;;5021651;28;20021;-65
2023/02/10 05:47:51;;;;;;;35.00;19.70;;;4.90;94.20;;;;;;5028748;28;20472;-65
2023/02/10 05:50:17;;;;;;;32.22;19.83;;;4.90;94.20;;;;;;5000789;28;20116;-64
2023/02/10 05:52:43;;;;;;;35.85;19.70;;;4.90;94.20;;;;;;5014013;28;20026;-65
2023/02/10 05:55:09;;;;;;;31.23;18.77;;;4.90;94.20;;;;;;5024899;28;20071;-64
2023/02/10 05:57:35;;;;;;;33.95;18.95;;;4.90;94.40;;;;;;5024801;28;20029;-65
2023/02/10 06:00:02;;;;;;;32.88;21.25;;;4.80;94.20;;;;;;5020771;28;20042;-65
2023/02/10 06:02:28;;;;;;;33.65;20.10;;;4.80;94.50;;;;;;5023599;28;20029;-65
2023/02/10 06:04:53;;;;;;;35.50;19.58;;;4.80;94.40;;;;;;5022749;28;20503;-65
2023/02/10 06:07:19;;;;;;;38.42;20.08;;;4.80;94.40;;;;;;5021210;28;20037;-65
2023/02/10 06:09:44;;;;;;;33.78;20.27;;;4.70;94.30;;;;;;5025494;28;20453;-65
2023/02/10 06:12:10;;;;;;;30.55;19.90;;;4.80;94.40;;;;;;5013454;28;20033;-65
2023/02/10 06:14:37;;;;;;;35.10;18.92;;;4.70;94.40;;;;;;5024380;28;20033;-65
2023/02/10 06:17:08;;;;;;;34.58;19.98;;;4.70;94.50;;;;;;5023387;28;20075;-65
2023/02/10 06:19:39;;;;;;;35.40;19.70;;;4.70;94.50;;;;;;5037043;28;20053;-65
2023/02/10 06:22:06;;;;;;;32.08;18.63;;;4.70;94.60;;;;;;5013588;28;20484;-65
2023/02/10 06:24:31;;;;;;;30.45;18.63;;;4.60;94.60;;;;;;5027783;28;20030;-65
2023/02/10 06:26:57;;;;;;;34.72;19.45;;;4.60;94.70;;;;;;5023462;28;20356;-64
2023/02/10 06:29:23;;;;;;;40.28;19.92;;;4.60;94.70;;;;;;5031368;28;20026;-64
2023/02/10 06:31:49;;;;;;;34.08;20.02;;;4.60;94.80;;;;;;5017032;28;20025;-65
2023/02/10 06:34:14;;;;;;;36.38;19.30;;;4.60;94.80;;;;;;5016873;28;20496;-65
2023/02/10 06:36:40;;;;;;;37.72;21.35;;;4.60;94.90;;;;;;5010462;28;20025;-65
2023/02/10 06:39:06;;;;;;;34.58;20.35;;;4.60;94.90;;;;;;5026688;28;20492;-65
2023/02/10 06:41:32;;;;;;;33.20;20.13;;;4.60;95.00;;;;;;5019801;28;20548;-65
2023/02/10 06:43:58;;;;;;;37.83;19.33;;;4.60;95.00;;;;;;5031297;28;20053;-65
2023/02/10 06:46:24;;;;;;;35.28;20.52;;;4.60;95.10;;;;;;5015685;28;20108;-65
2023/02/10 06:48:50;;;;;;;35.22;18.40;;;4.60;95.10;;;;;;5025771;28;20037;-65
2023/02/10 06:51:16;;;;;;;29.52;19.08;;;4.50;95.10;;;;;;5012849;28;20524;-65
2023/02/10 06:53:42;;;;;;;38.85;20.30;;;4.60;95.20;;;;;;5031623;28;20033;-65
2023/02/10 06:56:08;;;;;;;33.50;18.85;;;4.50;95.20;;;;;;5024903;28;20084;-65
2023/02/10 06:58:34;;;;;;;33.55;20.45;;;4.60;95.30;;;;;;5025035;28;20033;-66
2023/02/10 07:01:00;;;;;;;39.47;21.17;;;4.60;95.30;;;;;;5023645;28;20043;-65
2023/02/10 07:03:27;;;;;;;33.88;19.67;;;4.60;95.30;;;;;;5018728;28;20055;-64
2023/02/10 07:05:52;;;;;;;35.30;21.00;;;4.60;95.40;;;;;;5025230;28;20057;-64
2023/02/10 07:08:18;;;;;;;39.38;20.27;;;4.60;95.40;;;;;;5030840;28;20480;-65
2023/02/10 07:10:43;;;;;;;33.13;19.33;;;4.60;95.40;;;;;;5021844;28;20124;-65
2023/02/10 07:13:09;;;;;;;37.53;19.88;;;4.70;95.50;;;;;;5029997;28;20034;-66
2023/02/10 07:15:35;;;;;;;35.25;19.10;;;4.70;95.50;;;;;;5019128;28;20117;-64
2023/02/10 07:18:00;;;;;;;35.22;20.38;;;4.70;95.50;;;;;;5020109;28;20037;-64
2023/02/10 07:20:26;;;;;;;35.55;20.30;;;4.70;95.50;;;;;;5022451;28;20381;-65
2023/02/10 07:22:52;;;;;;;32.33;18.83;;;4.70;95.60;;;;;;5028660;28;20373;-64
2023/02/10 07:25:18;;;;;;;36.17;21.65;;;4.70;95.60;;;;;;5027116;28;20465;-64
2023/02/10 07:27:44;;;;;;;37.65;21.85;;;4.70;95.60;;;;;;5022249;28;20037;-65
2023/02/10 07:30:11;;;;;;;36.35;21.15;;;4.70;95.60;;;;;;5032956;28;20026;-64
2023/02/10 07:32:37;;;;;;;35.20;20.30;;;4.80;95.60;;;;;;5028236;28;20037;-65
2023/02/10 07:35:03;;;;;;;35.55;20.08;;;4.80;95.70;;;;;;5017249;28;20032;-65
2023/02/10 07:37:29;;;;;;;38.25;21.30;;;4.80;95.70;;;;;;5020857;28;20086;-64
2023/02/10 07:39:54;;;;;;;39.15;19.40;;;4.80;95.70;;;;;;5045830;28;20776;-65
2023/02/10 07:42:20;;;;;;;36.38;20.20;;;4.90;95.70;;;;;;5030452;28;20049;-65
2023/02/10 07:44:45;;;;;;;40.35;21.92;;;4.90;95.70;;;;;;5019646;28;20500;-65
2023/02/10 07:47:11;;;;;;;35.25;18.55;;;4.90;95.70;;;;;;5025101;28;20037;-65
2023/02/10 07:49:37;;;;;;;35.88;19.65;;;5.00;95.80;;;;;;5048187;28;20048;-65
2023/02/10 07:52:02;;;;;;;37.88;19.65;;;5.00;95.80;;;;;;5013187;28;20057;-65
2023/02/10 07:54:28;;;;;;;35.10;19.73;;;5.00;95.80;;;;;;5011232;28;20056;-66
2023/02/10 07:56:55;;;;;;;32.15;18.88;;;5.00;95.80;;;;;;5001026;28;20778;-65
2023/02/10 07:59:21;;;;;;;32.58;19.10;;;5.00;95.80;;;;;;5025131;28;20046;-65
2023/02/10 08:01:47;;;;;;;35.05;20.13;;;5.00;95.80;;;;;;5026711;28;20030;-65
2023/02/10 08:04:13;;;;;;;38.97;19.38;;;5.00;95.80;;;;;;5022815;28;20029;-64
2023/02/10 08:06:39;;;;;;;35.80;20.27;;;5.10;96.00;;;;;;5027002;28;20036;-65
2023/02/10 08:09:05;;;;;;;41.78;20.33;;;5.10;96.20;;;;;;5015232;28;20109;-65
2023/02/10 08:11:31;;;;;;;33.97;19.48;;;5.10;96.10;;;;;;5016730;28;20030;-65
2023/02/10 08:13:57;;;;;;;38.60;20.88;;;5.20;96.10;;;;;;5027187;28;20033;-65
2023/02/10 08:16:22;;;;;;;32.58;19.40;;;5.20;96.10;;;;;;5025715;28;20022;-65
2023/02/10 08:18:48;;;;;;;36.47;19.27;;;5.20;96.10;;;;;;5033195;28;20017;-64
2023/02/10 08:21:14;;;;;;;32.58;19.75;;;5.20;96.10;;;;;;5025479;28;20042;-65
2023/02/10 08:23:39;;;;;;;33.83;18.92;;;5.20;96.20;;;;;;5021282;28;20549;-64
2023/02/10 08:26:08;;;;;;;36.75;19.90;;;5.30;96.20;;;;;;5024138;28;20049;-64
2023/02/10 08:28:35;;;;;;;29.77;20.30;;;5.30;96.20;;;;;;5017868;28;20037;-64
2023/02/10 08:31:01;;;;;;;47.63;20.48;;;5.40;96.40;;;;;;5017039;28;20069;-65
2023/02/10 08:33:27;;;;;;;37.50;20.05;;;5.40;96.20;;;;;;5021400;28;20149;-64
2023/02/10 08:35:53;;;;;;;36.35;19.45;;;5.40;96.30;;;;;;5019471;28;20108;-65
2023/02/10 08:38:19;;;;;;;34.67;20.13;;;5.50;96.30;;;;;;5021360;28;20033;-65
2023/02/10 08:40:44;;;;;;;34.47;20.77;;;5.50;96.30;;;;;;5012445;28;20022;-64
2023/02/10 08:43:10;;;;;;;34.78;20.80;;;5.60;96.30;;;;;;5019636;28;20072;-64
2023/02/10 08:45:40;;;;;;;33.60;18.58;;;5.60;96.30;;;;;;5002152;28;20037;-65
2023/02/10 08:48:05;;;;;;;33.63;18.85;;;5.60;96.30;;;;;;5015778;28;20050;-65
2023/02/10 08:50:31;;;;;;;35.05;20.55;;;5.70;96.30;;;;;;5022592;28;20488;-65
2023/02/10 08:52:57;;;;;;;33.25;20.20;;;5.70;96.30;;;;;;5025540;28;20030;-66
2023/02/10 08:55:22;;;;;;;32.47;19.23;;;5.80;96.30;;;;;;5005263;28;20030;-64
2023/02/10 08:57:48;;;;;;;32.13;18.77;;;5.80;96.30;;;;;;5011858;28;20112;-65
2023/02/10 09:00:14;;;;;;;31.23;18.75;;;5.90;96.40;;;;;;5009330;28;20049;-64
2023/02/10 09:02:40;;;;;;;35.72;19.67;;;5.90;96.30;;;;;;5001028;28;20385;-65
2023/02/10 09:05:05;;;;;;;36.15;20.60;;;6.00;96.30;;;;;;4990248;28;20018;-65
2023/02/10 09:07:32;;;;;;;34.20;20.30;;;6.00;96.30;;;;;;5002985;28;20042;-65
2023/02/10 09:09:58;;;;;;;31.90;19.98;;;6.10;96.30;;;;;;4996255;28;20370;-66
2023/02/10 09:12:23;;;;;;;35.50;20.88;;;6.10;96.30;;;;;;4997330;28;20034;-64
2023/02/10 09:14:49;;;;;;;30.23;20.73;;;6.10;96.30;;;;;;4998050;28;20030;-66
2023/02/10 09:17:14;;;;;;;35.22;21.48;;;6.20;96.30;;;;;;5013189;28;20029;-64
2023/02/10 09:19:41;;;;;;;32.85;18.90;;;6.20;96.20;;;;;;5013582;28;20057;-65
2023/02/10 09:22:07;;;;;;;36.20;19.42;;;6.20;96.20;;;;;;5000272;28;20026;-65
2023/02/10 09:24:33;;;;;;;34.13;20.63;;;6.20;96.20;;;;;;5003456;28;20085;-65
2023/02/10 09:26:59;;;;;;;33.35;19.85;;;6.20;96.20;;;;;;4999369;28;20034;-65
2023/02/10 09:29:25;;;;;;;36.78;20.63;;;6.30;96.20;;;;;;5007612;28;20035;-66
2023/02/10 09:31:51;;;;;;;35.65;21.85;;;6.30;96.20;;;;;;5010109;28;20058;-65
2023/02/10 09:34:17;;;;;;;32.08;20.63;;;6.30;96.20;;;;;;4996183;28;20064;-65
2023/02/10 09:36:43;;;;;;;34.38;21.27;;;6.30;96.20;;;;;;4997129;28;20548;-65
2023/02/10 09:39:08;;;;;;;36.50;20.95;;;6.30;96.20;;;;;;5001000;28;20029;-65
2023/02/10 09:41:34;;;;;;;33.97;20.30;;;6.30;96.20;;;;;;5000153;28;20425;-64
2023/02/10 09:44:11;;;;;;;41.35;22.83;;;6.40;96.20;;;;;;5004243;28;20029;-64
2023/02/10 09:47:01;;;;;;;36.55;20.50;;;6.40;96.30;;;;;;5003598;28;20136;-64
2023/02/10 09:49:54;;;;;;;39.90;23.00;;;6.50;96.30;;;;;;5000634;28;20038;-64
2023/02/10 09:52:33;;;;;;;39.15;21.42;;;6.40;96.30;;;;;;4995910;28;20117;-64
2023/02/10 09:55:00;;;;;;;40.03;21.83;;;6.50;96.30;;;;;;5000741;28;20029;-63
2023/02/10 09:57:41;;;;;;;38.55;20.27;;;6.50;96.50;;;;;;5000037;28;20037;-62
2023/02/10 10:00:32;;;;;;;37.17;19.52;;;6.60;96.30;;;;;;5019624;28;20038;-65
2023/02/10 10:02:58;;;;;;;34.85;19.80;;;6.60;96.30;;;;;;5021784;28;20124;-64
2023/02/10 10:05:55;;;;;;;42.20;21.08;;;6.60;96.20;;;;;;5029212;28;20115;-64
2023/02/10 10:08:30;;;;;;;39.30;21.45;;;6.60;96.20;;;;;;5023095;28;20216;-64
2023/02/10 10:11:05;;;;;;;36.22;20.88;;;6.60;96.20;;;;;;5016652;28;20022;-64
2023/02/10 10:13:31;;;;;;;36.30;20.88;;;6.70;96.30;;;;;;5015155;28;20041;-65
2023/02/10 10:16:08;;;;;;;37.15;22.23;;;6.70;96.30;;;;;;5028079;28;20017;-64
2023/02/10 10:18:59;;;;;;;36.50;19.52;;;6.70;96.30;;;;;;5014737;28;20033;-65
2023/02/10 10:21:59;;;;;;;36.15;20.52;;;6.80;96.40;;;;;;5016029;28;20033;-65
2023/02/10 10:24:37;;;;;;;38.83;20.20;;;6.80;96.30;;;;;;5012716;28;20039;-64
2023/02/10 10:27:36;;;;;;;43.55;22.35;;;6.90;96.40;;;;;;5031723;28;20068;-64
2023/02/10 10:30:12;;;;;;;41.50;21.45;;;7.00;96.30;;;;;;5018631;28;20156;-64
2023/02/10 10:33:04;;;;;;;37.15;19.77;;;7.00;96.30;;;;;;5016053;28;20037;-65
2023/02/10 10:35:37;;;;;;;36.05;21.67;;;7.10;96.30;;;;;;5021587;28;20390;-64
2023/02/10 10:38:15;;;;;;;33.45;19.35;;;7.20;96.30;;;;;;5023896;28;20290;-65
2023/02/10 10:40:44;;;;;;;33.08;19.40;;;7.20;96.30;;;;;;5027380;28;20029;-64
2023/02/10 10:43:16;;;;;;;38.28;21.30;;;7.30;96.30;;;;;;5020021;28;20030;-64
2023/02/10 10:45:53;;;;;;;36.33;19.58;;;7.30;96.20;;;;;;5025631;28;20072;-65
2023/02/10 10:48:27;;;;;;;40.25;21.08;;;7.30;96.10;;;;;;5037210;28;20045;-65
2023/02/10 10:51:00;;;;;;;35.33;20.03;;;7.40;96.10;;;;;;5025350;28;20065;-65
2023/02/10 10:53:39;;;;;;;34.28;19.75;;;7.50;96.10;;;;;;5019176;28;20452;-64
2023/02/10 10:56:11;;;;;;;38.38;19.48;;;7.50;96.00;;;;;;5021452;28;20113;-65
2023/02/10 10:58:44;;;;;;;36.65;20.25;;;7.50;96.00;;;;;;5000736;28;20396;-65
2023/02/10 11:01:10;;;;;;;32.85;18.45;;;7.50;96.00;;;;;;4992564;28;20061;-65
2023/02/10 11:03:36;;;;;;;36.35;18.58;;;7.50;96.00;;;;;;4992835;28;20042;-65
2023/02/10 11:06:09;;;;;;;34.90;17.55;;;7.60;96.00;;;;;;5002114;28;20106;-64
2023/02/10 11:08:42;;;;;;;36.97;18.75;;;7.70;95.90;;;;;;5004507;28;20047;-65
2023/02/10 11:11:14;;;;;;;36.10;18.60;;;7.70;95.90;;;;;;5002194;28;20033;-65
2023/02/10 11:13:50;;;;;;;33.65;18.88;;;7.70;95.80;;;;;;4995359;28;20030;-64
2023/02/10 11:16:16;;;;;;;39.75;19.42;;;7.80;96.00;;;;;;5006504;28;20030;-65
2023/02/10 11:18:57;;;;;;;33.00;20.13;;;7.70;95.70;;;;;;5011181;28;20037;-66
2023/02/10 11:21:38;;;;;;;33.80;18.75;;;7.80;95.80;;;;;;4994079;28;20121;-66
2023/02/10 11:24:15;;;;;;;30.98;18.67;;;7.80;95.70;;;;;;5004882;28;20354;-65
2023/02/10 11:26:41;;;;;;;31.75;18.42;;;7.80;95.60;;;;;;5002712;28;20038;-64
2023/02/10 11:29:10;;;;;;;36.72;17.77;;;7.80;95.60;;;;;;4997366;28;20426;-64
2023/02/10 11:31:37;;;;;;;31.35;19.02;;;7.80;95.60;;;;;;4990636;28;20023;-65
2023/02/10 11:34:44;;;;;;;36.58;20.83;;;7.70;95.60;;;;;;5002794;28;20468;-66
2023/02/10 11:37:22;;;;;;;30.38;17.38;;;7.80;95.70;;;;;;4984784;28;20401;-65
2023/02/10 11:39:48;;;;;;;35.63;18.45;;;7.80;95.70;;;;;;4994166;28;20026;-64
2023/02/10 11:42:20;;;;;;;31.95;20.25;;;7.80;95.70;;;;;;4994863;28;20034;-64
2023/02/10 11:44:54;;;;;;;31.90;18.13;;;7.90;95.80;;;;;;5004789;28;20034;-65
2023/02/10 11:47:19;;;;;;;34.17;18.98;;;8.00;95.80;;;;;;5010100;28;20042;-65
2023/02/10 11:49:49;;;;;;;37.40;19.88;;;8.00;95.70;;;;;;5004317;28;20161;-65
2023/02/10 11:52:18;;;;;;;36.30;19.58;;;8.00;95.70;;;;;;4984643;28;20040;-64
2023/02/10 11:54:44;;;;;;;34.53;20.70;;;8.00;95.60;;;;;;4997949;28;20106;-65
2023/02/10 12:00:42;;;;;;;34.33;19.63;;;8.00;95.50;;;;;;4991939;28;20045;-64
2023/02/10 12:03:26;;;;;;;38.53;19.45;;;8.10;95.60;;;;;;5016898;28;20026;-64
2023/02/10 12:06:17;;;;;;;35.17;18.92;;;8.10;95.50;;;;;;5011692;28;20051;-64
2023/02/10 12:09:18;;;;;;;42.60;20.45;;;8.10;95.50;;;;;;5018965;28;20140;-65
2023/02/10 12:11:59;;;;;;;33.88;17.63;;;8.10;95.40;;;;;;5019954;28;20022;-66
2023/02/10 12:14:32;;;;;;;32.42;18.83;;;8.10;95.40;;;;;;5009074;28;20124;-64
2023/02/10 12:17:22;;;;;;;35.15;18.35;;;8.10;95.40;;;;;;5020258;28;20026;-65
2023/02/10 12:20:28;;;;;;;28.67;16.85;;;8.20;95.40;;;;;;5017264;28;20026;-64
2023/02/10 12:23:06;;;;;;;36.42;18.25;;;8.20;95.40;;;;;;4985208;28;20089;-65
2023/02/10 12:25:38;;;;;;;33.15;19.42;;;8.20;95.40;;;;;;5025458;28;20104;-65
2023/02/10 12:28:23;;;;;;;35.70;18.65;;;8.20;95.40;;;;;;5027107;28;20360;-65
2023/02/10 12:30:57;;;;;;;37.45;19.25;;;8.30;95.40;;;;;;5025751;28;20104;-65
2023/02/10 12:33:56;;;;;;;33.20;18.58;;;8.30;95.40;;;;;;5014026;28;20037;-65
2023/02/10 12:36:46;;;;;;;31.02;17.00;;;8.30;95.30;;;;;;5029717;28;20492;-63
2023/02/10 12:39:44;;;;;;;35.53;18.73;;;8.40;95.40;;;;;;5018521;28;20025;-63
2023/02/10 12:42:37;;;;;;;34.28;17.23;;;8.40;95.30;;;;;;5025846;28;20129;-64
2023/02/10 12:45:32;;;;;;;31.17;16.98;;;8.50;95.30;;;;;;5033362;28;20096;-64
2023/02/10 12:48:00;;;;;;;31.98;18.58;;;8.50;95.30;;;;;;5027938;28;20069;-64
2023/02/10 12:50:33;;;;;;;33.08;18.30;;;8.60;95.30;;;;;;5020963;28;20026;-64
2023/02/10 12:53:05;;;;;;;27.33;16.27;;;8.70;95.30;;;;;;5021509;28;20045;-64